sensor_id;sensor_type;location;lat;lon;timestamp;P1;durP1;ratioP1;P2;durP2;ratioP2
11731;SDS011;5922;53.734;10.258;2023-03-01T00:01:37;15.13;;;9.73;;
11731;SDS011;5922;53.734;10.258;2023-03-01T00:04:04;14.43;;;9.53;;
11731;SDS011;5922;53.734;10.258;2023-03-01T00:06:31;14.23;;;9.23;;
11731;SDS011;5922;53.734;10.258;2023-03-01T00:08:59;13.73;;;9.37;;
11731;SDS011;5922;53.734;10.258;2023-03-01T00:11:27;15.27;;;9.83;;
11731;SDS011;5922;53.734;10.258;2023-03-01T00:13:56;14.37;;;9.20;;
11731;SDS011;5922;53.734;10.258;2023-03-01T00:16:24;13.83;;;9.33;;
11731;SDS011;5922;53.734;10.258;2023-03-01T00:18:53;17.13;;;9.00;;
11731;SDS011;5922;53.734;10.258;2023-03-01T00:21:20;15.60;;;10.07;;
11731;SDS011;5922;53.734;10.258;2023-03-01T00:23:48;12.07;;;8.33;;
11731;SDS011;5922;53.734;10.258;2023-03-01T00:26:16;10.97;;;8.77;;
11731;SDS011;5922;53.734;10.258;2023-03-01T00:28:43;13.90;;;8.83;;
11731;SDS011;5922;53.734;10.258;2023-03-01T00:31:13;12.30;;;8.90;;
11731;SDS011;5922;53.734;10.258;2023-03-01T00:33:40;11.47;;;8.43;;
11731;SDS011;5922;53.734;10.258;2023-03-01T00:36:08;16.80;;;8.93;;
11731;SDS011;5922;53.734;10.258;2023-03-01T00:38:36;10.67;;;8.27;;
11731;SDS011;5922;53.734;10.258;2023-03-01T00:41:03;12.23;;;8.33;;
11731;SDS011;5922;53.734;10.258;2023-03-01T00:43:31;13.87;;;8.93;;
11731;SDS011;5922;53.734;10.258;2023-03-01T00:46:03;11.97;;;8.73;;
11731;SDS011;5922;53.734;10.258;2023-03-01T00:48:32;14.93;;;9.40;;
11731;SDS011;5922;53.734;10.258;2023-03-01T00:51:03;11.70;;;8.30;;
11731;SDS011;5922;53.734;10.258;2023-03-01T00:53:31;15.93;;;9.17;;
11731;SDS011;5922;53.734;10.258;2023-03-01T00:55:58;12.93;;;8.53;;
11731;SDS011;5922;53.734;10.258;2023-03-01T00:58:25;14.80;;;9.57;;
11731;SDS011;5922;53.734;10.258;2023-03-01T01:00:52;12.90;;;8.57;;
11731;SDS011;5922;53.734;10.258;2023-03-01T01:03:20;14.03;;;8.83;;
11731;SDS011;5922;53.734;10.258;2023-03-01T01:05:49;14.67;;;8.40;;
11731;SDS011;5922;53.734;10.258;2023-03-01T01:08:17;12.83;;;8.80;;
11731;SDS011;5922;53.734;10.258;2023-03-01T01:10:45;13.47;;;9.60;;
11731;SDS011;5922;53.734;10.258;2023-03-01T01:13:12;11.53;;;8.53;;
11731;SDS011;5922;53.734;10.258;2023-03-01T01:15:39;12.20;;;8.60;;
11731;SDS011;5922;53.734;10.258;2023-03-01T01:18:06;14.90;;;8.13;;
11731;SDS011;5922;53.734;10.258;2023-03-01T01:20:35;12.03;;;8.33;;
11731;SDS011;5922;53.734;10.258;2023-03-01T01:23:06;12.53;;;8.93;;
11731;SDS011;5922;53.734;10.258;2023-03-01T01:25:34;14.23;;;8.23;;
11731;SDS011;5922;53.734;10.258;2023-03-01T01:28:02;14.40;;;8.50;;
11731;SDS011;5922;53.734;10.258;2023-03-01T01:30:29;10.67;;;8.20;;
11731;SDS011;5922;53.734;10.258;2023-03-01T01:32:56;12.83;;;8.27;;
11731;SDS011;5922;53.734;10.258;2023-03-01T01:35:24;9.97;;;7.57;;
11731;SDS011;5922;53.734;10.258;2023-03-01T01:37:51;13.57;;;9.00;;
11731;SDS011;5922;53.734;10.258;2023-03-01T01:40:19;10.50;;;8.03;;
11731;SDS011;5922;53.734;10.258;2023-03-01T01:42:47;11.93;;;8.07;;
11731;SDS011;5922;53.734;10.258;2023-03-01T01:45:31;12.63;;;7.97;;
11731;SDS011;5922;53.734;10.258;2023-03-01T01:48:00;11.40;;;7.93;;
11731;SDS011;5922;53.734;10.258;2023-03-01T01:50:28;12.37;;;8.50;;
11731;SDS011;5922;53.734;10.258;2023-03-01T01:53:03;11.67;;;8.40;;
11731;SDS011;5922;53.734;10.258;2023-03-01T01:55:33;12.50;;;8.70;;
11731;SDS011;5922;53.734;10.258;2023-03-01T01:58:01;17.73;;;8.67;;
11731;SDS011;5922;53.734;10.258;2023-03-01T02:00:29;13.30;;;8.90;;
11731;SDS011;5922;53.734;10.258;2023-03-01T02:02:59;12.13;;;8.33;;
11731;SDS011;5922;53.734;10.258;2023-03-01T02:05:28;11.97;;;8.30;;
11731;SDS011;5922;53.734;10.258;2023-03-01T02:07:57;13.47;;;9.00;;
11731;SDS011;5922;53.734;10.258;2023-03-01T02:10:25;15.00;;;8.57;;
11731;SDS011;5922;53.734;10.258;2023-03-01T02:12:55;18.27;;;10.80;;
11731;SDS011;5922;53.734;10.258;2023-03-01T02:15:23;22.47;;;11.17;;
11731;SDS011;5922;53.734;10.258;2023-03-01T02:17:51;18.30;;;11.23;;
11731;SDS011;5922;53.734;10.258;2023-03-01T02:20:20;20.90;;;12.73;;
11731;SDS011;5922;53.734;10.258;2023-03-01T02:22:50;18.90;;;10.87;;
11731;SDS011;5922;53.734;10.258;2023-03-01T02:25:23;21.00;;;11.27;;
11731;SDS011;5922;53.734;10.258;2023-03-01T02:27:51;17.67;;;10.37;;
11731;SDS011;5922;53.734;10.258;2023-03-01T02:30:22;15.50;;;10.00;;
11731;SDS011;5922;53.734;10.258;2023-03-01T02:32:53;16.87;;;9.77;;
11731;SDS011;5922;53.734;10.258;2023-03-01T02:35:22;17.67;;;10.70;;
11731;SDS011;5922;53.734;10.258;2023-03-01T02:37:49;19.43;;;10.47;;
11731;SDS011;5922;53.734;10.258;2023-03-01T02:40:17;19.00;;;11.27;;
11731;SDS011;5922;53.734;10.258;2023-03-01T02:42:48;14.43;;;9.50;;
11731;SDS011;5922;53.734;10.258;2023-03-01T02:45:16;14.37;;;9.40;;
11731;SDS011;5922;53.734;10.258;2023-03-01T02:47:45;18.73;;;10.10;;
11731;SDS011;5922;53.734;10.258;2023-03-01T02:50:15;19.70;;;10.30;;
11731;SDS011;5922;53.734;10.258;2023-03-01T02:52:45;16.40;;;9.63;;
11731;SDS011;5922;53.734;10.258;2023-03-01T02:55:14;15.63;;;9.83;;
11731;SDS011;5922;53.734;10.258;2023-03-01T02:57:43;16.57;;;9.93;;
11731;SDS011;5922;53.734;10.258;2023-03-01T03:00:11;16.83;;;9.17;;
11731;SDS011;5922;53.734;10.258;2023-03-01T03:02:45;14.13;;;8.67;;
11731;SDS011;5922;53.734;10.258;2023-03-01T03:05:14;14.47;;;9.00;;
11731;SDS011;5922;53.734;10.258;2023-03-01T03:07:42;14.70;;;9.57;;
11731;SDS011;5922;53.734;10.258;2023-03-01T03:10:11;16.13;;;9.57;;
11731;SDS011;5922;53.734;10.258;2023-03-01T03:12:38;15.77;;;9.30;;
11731;SDS011;5922;53.734;10.258;2023-03-01T03:15:06;15.93;;;9.83;;
11731;SDS011;5922;53.734;10.258;2023-03-01T03:17:35;12.20;;;8.73;;
11731;SDS011;5922;53.734;10.258;2023-03-01T03:20:04;12.33;;;8.67;;
11731;SDS011;5922;53.734;10.258;2023-03-01T03:22:36;13.60;;;8.67;;
11731;SDS011;5922;53.734;10.258;2023-03-01T03:25:04;15.60;;;9.00;;
11731;SDS011;5922;53.734;10.258;2023-03-01T03:27:34;14.17;;;8.60;;
11731;SDS011;5922;53.734;10.258;2023-03-01T03:30:01;14.13;;;9.50;;
11731;SDS011;5922;53.734;10.258;2023-03-01T03:32:29;12.63;;;8.73;;
11731;SDS011;5922;53.734;10.258;2023-03-01T03:34:56;15.87;;;8.80;;
11731;SDS011;5922;53.734;10.258;2023-03-01T03:37:25;16.00;;;8.87;;
11731;SDS011;5922;53.734;10.258;2023-03-01T03:40:10;12.40;;;8.70;;
11731;SDS011;5922;53.734;10.258;2023-03-01T03:42:40;12.53;;;8.50;;
11731;SDS011;5922;53.734;10.258;2023-03-01T03:45:07;14.27;;;9.23;;
11731;SDS011;5922;53.734;10.258;2023-03-01T03:47:35;13.40;;;8.77;;
11731;SDS011;5922;53.734;10.258;2023-03-01T03:50:02;12.30;;;8.40;;
11731;SDS011;5922;53.734;10.258;2023-03-01T03:52:31;14.47;;;8.50;;
11731;SDS011;5922;53.734;10.258;2023-03-01T03:54:58;13.63;;;8.37;;
11731;SDS011;5922;53.734;10.258;2023-03-01T03:57:25;13.60;;;8.27;;
11731;SDS011;5922;53.734;10.258;2023-03-01T03:59:52;14.77;;;8.67;;
11731;SDS011;5922;53.734;10.258;2023-03-01T04:02:19;12.73;;;8.20;;
11731;SDS011;5922;53.734;10.258;2023-03-01T04:04:48;11.80;;;7.73;;
11731;SDS011;5922;53.734;10.258;2023-03-01T04:07:15;11.53;;;7.90;;
11731;SDS011;5922;53.734;10.258;2023-03-01T04:09:44;11.57;;;7.83;;
11731;SDS011;5922;53.734;10.258;2023-03-01T04:12:11;13.50;;;7.60;;
11731;SDS011;5922;53.734;10.258;2023-03-01T04:14:39;12.80;;;8.67;;
11731;SDS011;5922;53.734;10.258;2023-03-01T04:17:06;12.53;;;8.03;;
11731;SDS011;5922;53.734;10.258;2023-03-01T04:19:33;12.83;;;8.07;;
11731;SDS011;5922;53.734;10.258;2023-03-01T04:22:01;11.27;;;7.53;;
11731;SDS011;5922;53.734;10.258;2023-03-01T04:24:34;10.60;;;7.20;;
11731;SDS011;5922;53.734;10.258;2023-03-01T04:27:03;10.63;;;7.47;;
11731;SDS011;5922;53.734;10.258;2023-03-01T04:29:30;9.63;;;7.00;;
11731;SDS011;5922;53.734;10.258;2023-03-01T04:31:57;11.47;;;7.80;;
11731;SDS011;5922;53.734;10.258;2023-03-01T04:34:25;9.87;;;7.30;;
11731;SDS011;5922;53.734;10.258;2023-03-01T04:36:52;12.20;;;7.70;;
11731;SDS011;5922;53.734;10.258;2023-03-01T04:39:19;11.03;;;7.13;;
11731;SDS011;5922;53.734;10.258;2023-03-01T04:41:47;14.03;;;7.87;;
11731;SDS011;5922;53.734;10.258;2023-03-01T04:44:15;11.13;;;7.83;;
11731;SDS011;5922;53.734;10.258;2023-03-01T04:46:44;11.20;;;7.47;;
11731;SDS011;5922;53.734;10.258;2023-03-01T04:49:11;13.20;;;8.13;;
11731;SDS011;5922;53.734;10.258;2023-03-01T04:51:39;14.53;;;7.90;;
11731;SDS011;5922;53.734;10.258;2023-03-01T04:54:06;10.63;;;7.43;;
11731;SDS011;5922;53.734;10.258;2023-03-01T04:56:33;12.10;;;7.77;;
11731;SDS011;5922;53.734;10.258;2023-03-01T04:59:01;11.93;;;7.50;;
11731;SDS011;5922;53.734;10.258;2023-03-01T05:01:32;13.23;;;7.83;;
11731;SDS011;5922;53.734;10.258;2023-03-01T05:04:00;14.03;;;8.17;;
11731;SDS011;5922;53.734;10.258;2023-03-01T05:06:30;11.87;;;7.43;;
11731;SDS011;5922;53.734;10.258;2023-03-01T05:08:57;11.57;;;8.27;;
11731;SDS011;5922;53.734;10.258;2023-03-01T05:11:25;9.83;;;7.40;;
11731;SDS011;5922;53.734;10.258;2023-03-01T05:13:56;11.00;;;7.63;;
11731;SDS011;5922;53.734;10.258;2023-03-01T05:16:24;15.70;;;8.50;;
11731;SDS011;5922;53.734;10.258;2023-03-01T05:18:53;10.33;;;7.63;;
11731;SDS011;5922;53.734;10.258;2023-03-01T05:21:21;11.53;;;7.67;;
11731;SDS011;5922;53.734;10.258;2023-03-01T05:23:49;14.27;;;8.90;;
11731;SDS011;5922;53.734;10.258;2023-03-01T05:26:16;14.13;;;8.70;;
11731;SDS011;5922;53.734;10.258;2023-03-01T05:28:44;13.83;;;8.10;;
11731;SDS011;5922;53.734;10.258;2023-03-01T05:31:11;12.33;;;8.40;;
11731;SDS011;5922;53.734;10.258;2023-03-01T05:33:39;10.73;;;8.07;;
11731;SDS011;5922;53.734;10.258;2023-03-01T05:36:09;13.57;;;7.87;;
11731;SDS011;5922;53.734;10.258;2023-03-01T05:38:36;12.83;;;8.47;;
11731;SDS011;5922;53.734;10.258;2023-03-01T05:41:04;11.93;;;8.50;;
11731;SDS011;5922;53.734;10.258;2023-03-01T05:43:31;18.40;;;10.70;;
11731;SDS011;5922;53.734;10.258;2023-03-01T05:45:59;31.80;;;21.70;;
11731;SDS011;5922;53.734;10.258;2023-03-01T05:48:26;17.30;;;13.77;;
11731;SDS011;5922;53.734;10.258;2023-03-01T05:50:53;21.50;;;16.33;;
11731;SDS011;5922;53.734;10.258;2023-03-01T05:53:21;32.67;;;22.43;;
11731;SDS011;5922;53.734;10.258;2023-03-01T05:55:49;27.83;;;19.97;;
11731;SDS011;5922;53.734;10.258;2023-03-01T05:58:17;17.10;;;12.47;;
11731;SDS011;5922;53.734;10.258;2023-03-01T06:00:45;12.93;;;8.50;;
11731;SDS011;5922;53.734;10.258;2023-03-01T06:03:13;13.73;;;8.67;;
11731;SDS011;5922;53.734;10.258;2023-03-01T06:05:40;11.40;;;8.53;;
11731;SDS011;5922;53.734;10.258;2023-03-01T06:08:09;10.37;;;7.67;;
11731;SDS011;5922;53.734;10.258;2023-03-01T06:10:37;16.20;;;9.30;;
11731;SDS011;5922;53.734;10.258;2023-03-01T06:13:05;14.70;;;9.13;;
11731;SDS011;5922;53.734;10.258;2023-03-01T06:15:32;14.67;;;9.50;;
11731;SDS011;5922;53.734;10.258;2023-03-01T06:18:00;19.83;;;9.60;;
11731;SDS011;5922;53.734;10.258;2023-03-01T06:20:27;13.80;;;8.67;;
11731;SDS011;5922;53.734;10.258;2023-03-01T06:22:55;12.43;;;8.80;;
11731;SDS011;5922;53.734;10.258;2023-03-01T06:25:24;16.33;;;9.60;;
11731;SDS011;5922;53.734;10.258;2023-03-01T06:27:52;15.00;;;8.90;;
11731;SDS011;5922;53.734;10.258;2023-03-01T06:30:20;13.97;;;9.47;;
11731;SDS011;5922;53.734;10.258;2023-03-01T06:32:48;13.53;;;9.37;;
11731;SDS011;5922;53.734;10.258;2023-03-01T06:35:15;13.43;;;9.37;;
11731;SDS011;5922;53.734;10.258;2023-03-01T06:37:43;16.33;;;10.47;;
11731;SDS011;5922;53.734;10.258;2023-03-01T06:40:11;15.10;;;10.43;;
11731;SDS011;5922;53.734;10.258;2023-03-01T06:42:39;18.10;;;14.30;;
11731;SDS011;5922;53.734;10.258;2023-03-01T06:45:09;14.17;;;10.43;;
11731;SDS011;5922;53.734;10.258;2023-03-01T06:47:36;17.17;;;11.53;;
11731;SDS011;5922;53.734;10.258;2023-03-01T06:50:04;14.63;;;10.23;;
11731;SDS011;5922;53.734;10.258;2023-03-01T06:52:31;21.17;;;13.33;;
11731;SDS011;5922;53.734;10.258;2023-03-01T06:54:58;23.37;;;14.13;;
11731;SDS011;5922;53.734;10.258;2023-03-01T06:57:26;25.00;;;14.97;;
11731;SDS011;5922;53.734;10.258;2023-03-01T06:59:53;18.83;;;13.23;;
11731;SDS011;5922;53.734;10.258;2023-03-01T07:02:22;19.63;;;13.80;;
11731;SDS011;5922;53.734;10.258;2023-03-01T07:04:49;17.53;;;13.10;;
11731;SDS011;5922;53.734;10.258;2023-03-01T07:07:16;18.43;;;11.70;;
11731;SDS011;5922;53.734;10.258;2023-03-01T07:09:44;17.70;;;12.40;;
11731;SDS011;5922;53.734;10.258;2023-03-01T07:12:11;26.77;;;18.30;;
11731;SDS011;5922;53.734;10.258;2023-03-01T07:14:38;24.87;;;19.13;;
11731;SDS011;5922;53.734;10.258;2023-03-01T07:17:05;20.33;;;15.37;;
11731;SDS011;5922;53.734;10.258;2023-03-01T07:19:34;28.20;;;15.10;;
11731;SDS011;5922;53.734;10.258;2023-03-01T07:22:03;25.43;;;14.53;;
11731;SDS011;5922;53.734;10.258;2023-03-01T07:24:32;27.87;;;14.50;;
11731;SDS011;5922;53.734;10.258;2023-03-01T07:26:59;61.40;;;23.90;;
11731;SDS011;5922;53.734;10.258;2023-03-01T07:29:27;36.73;;;17.17;;
11731;SDS011;5922;53.734;10.258;2023-03-01T07:31:54;26.80;;;14.60;;
11731;SDS011;5922;53.734;10.258;2023-03-01T07:34:22;58.23;;;22.07;;
11731;SDS011;5922;53.734;10.258;2023-03-01T07:36:50;31.97;;;16.60;;
11731;SDS011;5922;53.734;10.258;2023-03-01T07:39:18;38.00;;;18.23;;
11731;SDS011;5922;53.734;10.258;2023-03-01T07:41:45;39.80;;;19.17;;
11731;SDS011;5922;53.734;10.258;2023-03-01T07:44:12;41.40;;;17.77;;
11731;SDS011;5922;53.734;10.258;2023-03-01T07:46:40;136.23;;;38.67;;
11731;SDS011;5922;53.734;10.258;2023-03-01T07:49:08;175.33;;;47.33;;
11731;SDS011;5922;53.734;10.258;2023-03-01T07:51:35;280.40;;;81.10;;
11731;SDS011;5922;53.734;10.258;2023-03-01T07:54:04;88.53;;;35.37;;
11731;SDS011;5922;53.734;10.258;2023-03-01T07:56:32;39.47;;;19.60;;
11731;SDS011;5922;53.734;10.258;2023-03-01T07:58:59;37.27;;;18.93;;
11731;SDS011;5922;53.734;10.258;2023-03-01T08:01:26;48.67;;;23.60;;
11731;SDS011;5922;53.734;10.258;2023-03-01T08:03:53;33.43;;;19.20;;
11731;SDS011;5922;53.734;10.258;2023-03-01T08:06:20;21.37;;;15.80;;
11731;SDS011;5922;53.734;10.258;2023-03-01T08:08:48;26.40;;;16.03;;
11731;SDS011;5922;53.734;10.258;2023-03-01T08:11:16;25.37;;;16.47;;
11731;SDS011;5922;53.734;10.258;2023-03-01T08:13:43;23.07;;;15.03;;
11731;SDS011;5922;53.734;10.258;2023-03-01T08:16:11;23.73;;;15.33;;
11731;SDS011;5922;53.734;10.258;2023-03-01T08:18:39;23.00;;;14.63;;
11731;SDS011;5922;53.734;10.258;2023-03-01T08:21:07;25.20;;;14.93;;
11731;SDS011;5922;53.734;10.258;2023-03-01T08:23:34;20.70;;;14.67;;
11731;SDS011;5922;53.734;10.258;2023-03-01T08:26:06;20.37;;;14.27;;
11731;SDS011;5922;53.734;10.258;2023-03-01T08:28:35;20.57;;;14.53;;
11731;SDS011;5922;53.734;10.258;2023-03-01T08:31:02;25.53;;;15.87;;
11731;SDS011;5922;53.734;10.258;2023-03-01T08:33:29;20.97;;;14.37;;
11731;SDS011;5922;53.734;10.258;2023-03-01T08:36:03;20.73;;;14.67;;
11731;SDS011;5922;53.734;10.258;2023-03-01T08:38:32;16.60;;;13.77;;
11731;SDS011;5922;53.734;10.258;2023-03-01T08:40:59;19.97;;;13.83;;
11731;SDS011;5922;53.734;10.258;2023-03-01T08:43:27;19.33;;;13.63;;
11731;SDS011;5922;53.734;10.258;2023-03-01T08:45:55;20.47;;;14.20;;
11731;SDS011;5922;53.734;10.258;2023-03-01T08:48:23;18.57;;;14.17;;
11731;SDS011;5922;53.734;10.258;2023-03-01T08:50:50;16.97;;;13.10;;
11731;SDS011;5922;53.734;10.258;2023-03-01T08:53:17;28.37;;;19.27;;
11731;SDS011;5922;53.734;10.258;2023-03-01T08:55:44;57.20;;;41.90;;
11731;SDS011;5922;53.734;10.258;2023-03-01T08:58:11;61.77;;;45.23;;
11731;SDS011;5922;53.734;10.258;2023-03-01T09:00:39;45.10;;;31.83;;
11731;SDS011;5922;53.734;10.258;2023-03-01T09:03:07;28.60;;;20.80;;
11731;SDS011;5922;53.734;10.258;2023-03-01T09:05:34;41.13;;;30.63;;
11731;SDS011;5922;53.734;10.258;2023-03-01T09:08:02;56.60;;;40.97;;
11731;SDS011;5922;53.734;10.258;2023-03-01T09:10:29;38.37;;;27.00;;
11731;SDS011;5922;53.734;10.258;2023-03-01T09:12:56;79.57;;;50.20;;
11731;SDS011;5922;53.734;10.258;2023-03-01T09:15:23;55.20;;;34.30;;
11731;SDS011;5922;53.734;10.258;2023-03-01T09:17:50;22.00;;;15.50;;
11731;SDS011;5922;53.734;10.258;2023-03-01T09:20:21;23.70;;;17.90;;
11731;SDS011;5922;53.734;10.258;2023-03-01T09:22:49;17.83;;;13.67;;
11731;SDS011;5922;53.734;10.258;2023-03-01T09:25:16;18.70;;;12.30;;
11731;SDS011;5922;53.734;10.258;2023-03-01T09:27:43;17.10;;;11.97;;
11731;SDS011;5922;53.734;10.258;2023-03-01T09:30:11;17.83;;;14.00;;
11731;SDS011;5922;53.734;10.258;2023-03-01T09:32:38;16.80;;;12.23;;
11731;SDS011;5922;53.734;10.258;2023-03-01T09:35:07;21.07;;;15.50;;
11731;SDS011;5922;53.734;10.258;2023-03-01T09:37:36;18.77;;;14.37;;
11731;SDS011;5922;53.734;10.258;2023-03-01T09:40:05;20.80;;;14.70;;
11731;SDS011;5922;53.734;10.258;2023-03-01T09:42:34;23.00;;;17.47;;
11731;SDS011;5922;53.734;10.258;2023-03-01T09:45:02;21.07;;;16.70;;
11731;SDS011;5922;53.734;10.258;2023-03-01T09:47:30;21.53;;;14.13;;
11731;SDS011;5922;53.734;10.258;2023-03-01T09:50:02;15.60;;;12.03;;
11731;SDS011;5922;53.734;10.258;2023-03-01T09:52:34;16.30;;;12.20;;
11731;SDS011;5922;53.734;10.258;2023-03-01T09:55:08;15.03;;;12.43;;
11731;SDS011;5922;53.734;10.258;2023-03-01T09:57:36;18.23;;;12.33;;
11731;SDS011;5922;53.734;10.258;2023-03-01T10:00:12;17.20;;;11.63;;
11731;SDS011;5922;53.734;10.258;2023-03-01T10:02:41;13.50;;;10.93;;
11731;SDS011;5922;53.734;10.258;2023-03-01T10:05:15;14.80;;;10.30;;
11731;SDS011;5922;53.734;10.258;2023-03-01T10:07:47;15.60;;;11.83;;
11731;SDS011;5922;53.734;10.258;2023-03-01T10:10:23;17.73;;;11.30;;
11731;SDS011;5922;53.734;10.258;2023-03-01T10:12:51;14.67;;;11.73;;
11731;SDS011;5922;53.734;10.258;2023-03-01T10:15:22;17.43;;;11.80;;
11731;SDS011;5922;53.734;10.258;2023-03-01T10:17:52;17.83;;;11.03;;
11731;SDS011;5922;53.734;10.258;2023-03-01T10:20:22;13.83;;;11.20;;
11731;SDS011;5922;53.734;10.258;2023-03-01T10:22:50;14.13;;;11.20;;
11731;SDS011;5922;53.734;10.258;2023-03-01T10:25:29;16.43;;;12.00;;
11731;SDS011;5922;53.734;10.258;2023-03-01T10:27:59;14.80;;;11.47;;
11731;SDS011;5922;53.734;10.258;2023-03-01T10:30:29;15.30;;;11.30;;
11731;SDS011;5922;53.734;10.258;2023-03-01T10:32:59;14.60;;;10.93;;
11731;SDS011;5922;53.734;10.258;2023-03-01T10:35:27;13.47;;;10.90;;
11731;SDS011;5922;53.734;10.258;2023-03-01T10:38:03;14.27;;;10.43;;
11731;SDS011;5922;53.734;10.258;2023-03-01T10:40:32;12.07;;;10.23;;
11731;SDS011;5922;53.734;10.258;2023-03-01T10:42:59;15.67;;;11.67;;
11731;SDS011;5922;53.734;10.258;2023-03-01T10:45:30;17.43;;;11.33;;
11731;SDS011;5922;53.734;10.258;2023-03-01T10:48:04;21.13;;;14.87;;
11731;SDS011;5922;53.734;10.258;2023-03-01T10:50:32;19.83;;;15.07;;
11731;SDS011;5922;53.734;10.258;2023-03-01T10:53:00;20.37;;;14.30;;
11731;SDS011;5922;53.734;10.258;2023-03-01T10:55:30;16.27;;;12.40;;
11731;SDS011;5922;53.734;10.258;2023-03-01T10:58:16;13.87;;;10.20;;
11731;SDS011;5922;53.734;10.258;2023-03-01T11:00:48;12.20;;;9.13;;
11731;SDS011;5922;53.734;10.258;2023-03-01T11:03:16;12.67;;;10.00;;
11731;SDS011;5922;53.734;10.258;2023-03-01T11:05:52;11.93;;;8.60;;
11731;SDS011;5922;53.734;10.258;2023-03-01T11:11:19;12.47;;;8.17;;
11731;SDS011;5922;53.734;10.258;2023-03-01T11:13:50;10.13;;;8.13;;
11731;SDS011;5922;53.734;10.258;2023-03-01T11:16:22;10.70;;;7.80;;
11731;SDS011;5922;53.734;10.258;2023-03-01T11:18:56;11.00;;;8.00;;
11731;SDS011;5922;53.734;10.258;2023-03-01T11:21:23;10.27;;;8.23;;
11731;SDS011;5922;53.734;10.258;2023-03-01T11:23:51;9.73;;;7.67;;
11731;SDS011;5922;53.734;10.258;2023-03-01T11:26:18;11.10;;;7.93;;
11731;SDS011;5922;53.734;10.258;2023-03-01T11:28:47;9.17;;;7.47;;
11731;SDS011;5922;53.734;10.258;2023-03-01T11:31:17;10.90;;;7.10;;
11731;SDS011;5922;53.734;10.258;2023-03-01T11:33:47;8.43;;;6.70;;
11731;SDS011;5922;53.734;10.258;2023-03-01T11:36:16;9.67;;;6.97;;
11731;SDS011;5922;53.734;10.258;2023-03-01T11:38:46;10.17;;;7.70;;
11731;SDS011;5922;53.734;10.258;2023-03-01T11:41:15;8.90;;;7.03;;
11731;SDS011;5922;53.734;10.258;2023-03-01T11:43:47;10.87;;;8.30;;
11731;SDS011;5922;53.734;10.258;2023-03-01T11:49:09;7.00;;;6.20;;
11731;SDS011;5922;53.734;10.258;2023-03-01T11:51:42;8.40;;;6.33;;
11731;SDS011;5922;53.734;10.258;2023-03-01T11:54:13;9.23;;;6.80;;
11731;SDS011;5922;53.734;10.258;2023-03-01T11:56:45;7.20;;;6.20;;
11731;SDS011;5922;53.734;10.258;2023-03-01T11:59:20;8.00;;;6.23;;
11731;SDS011;5922;53.734;10.258;2023-03-01T12:01:56;6.93;;;5.43;;
11731;SDS011;5922;53.734;10.258;2023-03-01T12:04:35;6.97;;;5.87;;
11731;SDS011;5922;53.734;10.258;2023-03-01T12:07:06;9.33;;;6.00;;
11731;SDS011;5922;53.734;10.258;2023-03-01T12:09:38;6.60;;;5.67;;
11731;SDS011;5922;53.734;10.258;2023-03-01T12:12:16;7.03;;;5.73;;
11731;SDS011;5922;53.734;10.258;2023-03-01T12:15:00;7.83;;;5.63;;
11731;SDS011;5922;53.734;10.258;2023-03-01T12:20:29;7.03;;;5.40;;
11731;SDS011;5922;53.734;10.258;2023-03-01T12:23:02;6.23;;;5.40;;
11731;SDS011;5922;53.734;10.258;2023-03-01T12:25:34;7.70;;;5.00;;
11731;SDS011;5922;53.734;10.258;2023-03-01T12:30:55;6.33;;;5.07;;
11731;SDS011;5922;53.734;10.258;2023-03-01T12:33:29;6.80;;;5.27;;
11731;SDS011;5922;53.734;10.258;2023-03-01T12:36:07;7.37;;;5.50;;
11731;SDS011;5922;53.734;10.258;2023-03-01T12:38:37;6.50;;;5.80;;
11731;SDS011;5922;53.734;10.258;2023-03-01T12:41:11;9.03;;;6.97;;
11731;SDS011;5922;53.734;10.258;2023-03-01T12:43:46;8.63;;;6.33;;
11731;SDS011;5922;53.734;10.258;2023-03-01T12:46:18;7.53;;;6.40;;
11731;SDS011;5922;53.734;10.258;2023-03-01T12:48:50;9.67;;;7.40;;
11731;SDS011;5922;53.734;10.258;2023-03-01T12:51:25;8.67;;;6.47;;
11731;SDS011;5922;53.734;10.258;2023-03-01T12:53:53;7.63;;;6.37;;
11731;SDS011;5922;53.734;10.258;2023-03-01T12:56:22;8.60;;;6.63;;
11731;SDS011;5922;53.734;10.258;2023-03-01T12:58:51;7.87;;;7.00;;
11731;SDS011;5922;53.734;10.258;2023-03-01T13:01:26;10.53;;;7.43;;
11731;SDS011;5922;53.734;10.258;2023-03-01T13:04:02;10.53;;;7.40;;
11731;SDS011;5922;53.734;10.258;2023-03-01T13:07:02;6.73;;;5.23;;
11731;SDS011;5922;53.734;10.258;2023-03-01T13:09:34;5.13;;;3.87;;
11731;SDS011;5922;53.734;10.258;2023-03-01T13:12:03;6.80;;;5.37;;
11731;SDS011;5922;53.734;10.258;2023-03-01T13:17:53;7.50;;;5.93;;
11731;SDS011;5922;53.734;10.258;2023-03-01T13:20:24;6.17;;;4.73;;
11731;SDS011;5922;53.734;10.258;2023-03-01T13:23:01;6.10;;;5.20;;
11731;SDS011;5922;53.734;10.258;2023-03-01T13:25:31;8.07;;;5.80;;
11731;SDS011;5922;53.734;10.258;2023-03-01T13:30:53;7.93;;;6.30;;
11731;SDS011;5922;53.734;10.258;2023-03-01T13:42:25;9.30;;;6.93;;
11731;SDS011;5922;53.734;10.258;2023-03-01T13:45:12;9.97;;;7.00;;
11731;SDS011;5922;53.734;10.258;2023-03-01T13:47:41;8.63;;;7.63;;
11731;SDS011;5922;53.734;10.258;2023-03-01T13:50:18;8.83;;;7.17;;
11731;SDS011;5922;53.734;10.258;2023-03-01T13:53:06;10.37;;;7.90;;
11731;SDS011;5922;53.734;10.258;2023-03-01T14:01:20;9.30;;;6.87;;
11731;SDS011;5922;53.734;10.258;2023-03-01T14:03:48;9.70;;;7.27;;
11731;SDS011;5922;53.734;10.258;2023-03-01T14:06:16;8.63;;;6.80;;
11731;SDS011;5922;53.734;10.258;2023-03-01T14:08:44;8.60;;;7.40;;
11731;SDS011;5922;53.734;10.258;2023-03-01T14:11:22;10.27;;;6.93;;
11731;SDS011;5922;53.734;10.258;2023-03-01T14:13:58;9.20;;;7.27;;
11731;SDS011;5922;53.734;10.258;2023-03-01T14:16:32;9.03;;;7.70;;
11731;SDS011;5922;53.734;10.258;2023-03-01T14:19:05;9.50;;;7.57;;
11731;SDS011;5922;53.734;10.258;2023-03-01T14:21:36;8.40;;;7.10;;
11731;SDS011;5922;53.734;10.258;2023-03-01T14:24:03;7.37;;;6.40;;
11731;SDS011;5922;53.734;10.258;2023-03-01T14:26:33;7.17;;;5.70;;
11731;SDS011;5922;53.734;10.258;2023-03-01T14:29:23;7.73;;;6.70;;
11731;SDS011;5922;53.734;10.258;2023-03-01T14:31:51;7.60;;;6.07;;
11731;SDS011;5922;53.734;10.258;2023-03-01T14:34:22;7.57;;;6.10;;
11731;SDS011;5922;53.734;10.258;2023-03-01T14:36:49;8.83;;;6.40;;
11731;SDS011;5922;53.734;10.258;2023-03-01T14:39:17;8.87;;;6.87;;
11731;SDS011;5922;53.734;10.258;2023-03-01T14:41:45;7.03;;;5.20;;
11731;SDS011;5922;53.734;10.258;2023-03-01T14:44:14;6.17;;;4.93;;
11731;SDS011;5922;53.734;10.258;2023-03-01T14:46:43;8.27;;;5.87;;
11731;SDS011;5922;53.734;10.258;2023-03-01T14:49:14;7.80;;;5.47;;
11731;SDS011;5922;53.734;10.258;2023-03-01T14:51:42;8.23;;;5.57;;
11731;SDS011;5922;53.734;10.258;2023-03-01T14:54:18;7.93;;;5.90;;
11731;SDS011;5922;53.734;10.258;2023-03-01T14:56:49;6.63;;;5.53;;
11731;SDS011;5922;53.734;10.258;2023-03-01T14:59:32;7.70;;;5.97;;
11731;SDS011;5922;53.734;10.258;2023-03-01T15:02:00;7.00;;;5.40;;
11731;SDS011;5922;53.734;10.258;2023-03-01T15:04:31;8.33;;;5.00;;
11731;SDS011;5922;53.734;10.258;2023-03-01T15:07:16;4.83;;;3.77;;
11731;SDS011;5922;53.734;10.258;2023-03-01T15:10:02;4.67;;;4.00;;
11731;SDS011;5922;53.734;10.258;2023-03-01T15:12:50;4.33;;;3.50;;
11731;SDS011;5922;53.734;10.258;2023-03-01T15:15:36;5.17;;;3.77;;
11731;SDS011;5922;53.734;10.258;2023-03-01T15:18:13;5.20;;;4.47;;
11731;SDS011;5922;53.734;10.258;2023-03-01T15:20:42;6.03;;;4.90;;